Endicott, WA (99125)

5:33 PM PDT on July 12, 2014 (GMT -0700)
Winona-Silk Stocking Road (KWAENDIC4) Elev 1483 ft | 46.94 °N, 117.80 °W | Change Station

Current weather conditions updated 2 seconds ago

Clear
Clear
101.3 °F
Feels Like 96 °F
N
0.0
Wind Variable Wind from WNW
Gusts 5.4 mph

Tomorrow is forecast to be nearly the same temperature as today.

Today
High -- | Low -- °F
--% Chance of Precip.
Yesterday
High -- | Low -- °F
Precip. -- in
5:08 AM 8:43 PM
Full, 100% visible
Pressure 30.08 in
Visibility 10.0 miles
Clouds Clear
Heat Index 96 °F
Dew Point 39 °F
Humidity 12%
Rainfall 0.00 in
Snow Depth Not available.
UV 4 out of 12
Pollen 5.70 out of 12
Air Quality Not available.
Flu Activity Sporadic
METAR KPUW 122353Z AUTO 00000KT 10SM CLR 34/07 A3012 RMK AO2 SLP184 T03390067 10344 20283 57010

More Conditions Fewer Conditions

Pressure 30.08 in
Visibility 10.0 miles
Clouds Clear
Heat Index 96 °F
Dew Point 39 °F
Humidity 12%
Rainfall 0.00 in
Snow Depth Not available.
UV 4 out of 12
Pollen 5.70 out of 12
Air Quality Not available.
Flu Activity Sporadic
METAR KPUW 122353Z AUTO 00000KT 10SM CLR 34/07 A3012 RMK AO2 SLP184 T03390067 10344 20283 57010

More Conditions Fewer Conditions

10-Day Weather Forecast

Almanac

Astronomy

Jul. 12, 2014 Rise Set
Actual Time 5:08 AM PDT 8:43 PM PDT
Civil Twilight 4:30 AM PDT 9:22 PM PDT
Nautical Twilight 3:38 AM PDT 10:13 PM PDT
Astronomical Twilight 2:29 AM PDT 11:21 PM PDT
Moon 8:41 PM PDT (7/12) 5:39 AM PDT (7/12)
Length of Visible Light 16h 51m
Length of Day
15h 35m
Tomorrow will be 1m 39s shorter.
Full, 100% of the Moon is Illuminated
Today
Full
Jul 18
Last Quarter
Jul 26
New
Aug 3
First Quarter
Aug 10
Full

Today's Extremes

State Highs State Lows

Community

WunderPhotos

Upload Photos

1,733,016 photos uploaded!

WunderBlogs® & News

Nearby

Snow Depth

Station Depth Elevation
Quartz Peak 0 in 4700 ft
Moses Mountain 1 in 5300 ft
Trough 0 in 5300 ft
Grouse Camp 0 in 5380 ft
Sasse Ridge 0 in 4200 ft

Earthquake Activity

City Distance Mag. Time & Date
No recent earthquake activity has been reported nearby.
Minimum magnitude displayed is 2.5.

Coastal Water Temperatures

Place Temperature
No Stations Reporting

Nearby Weather Stations

Station Location Temp. Heat Index Dew Point Humidity Wind Precip. Elev Updated Type
Winona-Silk Stocking Road, Endicott, WA 101.3 °F 96 °F 39 °F 12% WNW  at  0.0 mph 0.00 in / hr 1483 ft 5:33 PM PDT Rapid Fire
Onecho, WA 99.2 °F 95 °F 44 °F 15% NNE  at  4.0 mph 0.00 in / hr 1749 ft 5:23 PM PDT Normal
HADS DEADMAN CREEK NEAR GOULD CITY NE WA, Pomeroy, WA 107 °F 99 °F - - North  at  - 0.00 in / hr 1100 ft 2:15 PM PDT MADIS
MesoWest TESKE , Ritzville, WA 102 °F 95 °F - - North  at  - 0.00 in / hr 1759 ft 2:05 PM PDT MADIS
Central Ferry, Pomeroy, WA 102.4 °F 97 °F 33 °F 9% NNE  at  2.0 mph 0.00 in / hr 671 ft 5:29 PM PDT Normal

Show More Stations Show Fewer Stations